createdAt,value
2018-09-19T00:02:02.855Z,4.40
2018-09-19T00:04:31.108Z,5.07
2018-09-19T00:06:59.213Z,4.47
2018-09-19T00:09:27.239Z,5.17
2018-09-19T00:11:55.310Z,5.30
2018-09-19T00:14:23.355Z,4.47
2018-09-19T00:16:51.393Z,4.57
2018-09-19T00:19:19.475Z,5.40
2018-09-19T00:21:47.570Z,5.20
2018-09-19T00:24:16.175Z,4.80
2018-09-19T00:26:44.215Z,4.90
2018-09-19T00:29:12.271Z,4.57
2018-09-19T00:31:40.323Z,4.70
2018-09-19T00:34:08.561Z,4.20
2018-09-19T00:36:36.572Z,4.27
2018-09-19T00:39:06.996Z,4.58
2018-09-19T00:41:35.065Z,4.50
2018-09-19T00:44:03.132Z,4.60
2018-09-19T00:46:31.163Z,4.23
2018-09-19T00:48:59.248Z,3.60
2018-09-19T00:51:27.296Z,4.07
2018-09-19T00:53:55.357Z,4.07
2018-09-19T00:56:23.424Z,3.07
2018-09-19T00:58:51.507Z,4.07
2018-09-19T01:01:19.538Z,3.90
2018-09-19T01:03:47.613Z,3.93
2018-09-19T01:06:15.738Z,3.73
2018-09-19T01:08:43.782Z,3.63
2018-09-19T01:11:11.858Z,3.70
2018-09-19T01:13:40.082Z,3.80
2018-09-19T01:16:08.096Z,4.17
2018-09-19T01:18:36.263Z,3.80
2018-09-19T01:21:04.557Z,3.97
2018-09-19T01:23:32.612Z,3.85
2018-09-19T01:26:00.659Z,4.50
2018-09-19T01:28:28.707Z,3.60
2018-09-19T01:30:56.748Z,3.80
2018-09-19T01:33:24.795Z,3.90
2018-09-19T01:35:53.020Z,4.05
2018-09-19T01:38:21.074Z,4.03
2018-09-19T01:40:49.251Z,3.97
2018-09-19T01:43:17.384Z,3.50
2018-09-19T01:45:45.512Z,3.57
2018-09-19T01:48:13.581Z,3.77
2018-09-19T01:50:41.656Z,4.07
2018-09-19T01:53:09.715Z,3.65
2018-09-19T01:55:37.752Z,3.57
2018-09-19T01:58:05.841Z,3.63
2018-09-19T02:00:33.913Z,3.60
2018-09-19T02:03:02.020Z,3.50
2018-09-19T02:05:30.097Z,3.53
2018-09-19T02:07:58.168Z,4.23
2018-09-19T02:10:26.231Z,3.90
2018-09-19T02:12:54.300Z,3.57
2018-09-19T02:15:28.641Z,3.10
2018-09-19T02:17:56.840Z,4.17
2018-09-19T02:20:24.956Z,4.03
2018-09-19T02:22:53.043Z,3.83
2018-09-19T02:25:21.047Z,3.77
2018-09-19T02:27:49.459Z,4.23
2018-09-19T02:30:17.532Z,3.58
2018-09-19T02:32:45.575Z,3.57
2018-09-19T02:35:13.698Z,4.43
2018-09-19T02:37:41.717Z,3.63
2018-09-19T02:40:09.800Z,3.83
2018-09-19T02:42:37.807Z,4.27
2018-09-19T02:45:05.883Z,4.30
2018-09-19T02:47:34.054Z,4.10
2018-09-19T02:50:02.090Z,3.93
2018-09-19T02:52:30.180Z,4.70
2018-09-19T02:54:58.220Z,4.87
2018-09-19T02:57:26.314Z,4.07
2018-09-19T02:59:54.410Z,4.27
2018-09-19T03:02:22.392Z,3.65
2018-09-19T03:04:50.433Z,3.93
2018-09-19T03:07:18.472Z,3.40
2018-09-19T03:09:46.677Z,3.77
2018-09-19T03:12:14.732Z,3.72
2018-09-19T03:14:42.815Z,4.20
2018-09-19T03:17:10.910Z,4.20
2018-09-19T03:19:39.161Z,4.17
2018-09-19T03:22:07.228Z,4.23
2018-09-19T03:24:35.280Z,4.30
2018-09-19T03:27:03.338Z,4.17
2018-09-19T03:29:31.598Z,4.20
2018-09-19T03:31:59.591Z,4.10
2018-09-19T03:34:27.665Z,4.17
2018-09-19T03:36:56.052Z,4.73
2018-09-19T03:39:24.139Z,3.97
2018-09-19T03:41:52.184Z,4.30
2018-09-19T03:44:20.228Z,4.90
2018-09-19T03:46:48.266Z,4.73
2018-09-19T03:49:16.909Z,4.23
2018-09-19T03:51:44.969Z,4.53
2018-09-19T03:54:13.004Z,4.40
2018-09-19T03:56:41.045Z,4.53
2018-09-19T03:59:09.331Z,4.70
2018-09-19T04:01:37.368Z,4.40
2018-09-19T04:04:05.545Z,4.43
2018-09-19T04:06:33.573Z,4.53
2018-09-19T04:09:01.632Z,5.25
2018-09-19T04:11:29.679Z,4.63
2018-09-19T04:13:57.732Z,5.57
2018-09-19T04:16:25.771Z,4.70
2018-09-19T04:18:54.178Z,4.43
2018-09-19T04:21:22.224Z,5.33
2018-09-19T04:23:50.270Z,4.80
2018-09-19T04:26:18.363Z,4.78
2018-09-19T04:28:46.409Z,5.20
2018-09-19T04:31:14.544Z,4.30
2018-09-19T04:33:42.864Z,4.85
2018-09-19T04:36:11.022Z,5.45
2018-09-19T04:38:39.071Z,4.87
2018-09-19T04:41:07.155Z,5.10
2018-09-19T04:43:35.208Z,5.03
2018-09-19T04:46:03.266Z,5.63
2018-09-19T04:48:31.359Z,5.57
2018-09-19T04:50:59.411Z,5.80
2018-09-19T04:53:27.451Z,5.53
2018-09-19T04:55:55.576Z,5.37
2018-09-19T04:58:23.813Z,5.47
2018-09-19T05:00:51.904Z,5.70
2018-09-19T05:03:19.973Z,5.62
2018-09-19T05:05:48.096Z,5.37
2018-09-19T05:08:16.097Z,6.20
2018-09-19T05:10:44.136Z,5.70
2018-09-19T05:13:12.381Z,5.60
2018-09-19T05:15:40.428Z,6.50
2018-09-19T05:18:08.480Z,6.67
2018-09-19T05:20:36.528Z,6.80
2018-09-19T05:23:05.024Z,6.53
2018-09-19T05:25:33.331Z,7.00
2018-09-19T05:28:01.381Z,6.30
2018-09-19T05:30:29.560Z,6.80
2018-09-19T05:32:57.780Z,6.67
2018-09-19T05:35:25.948Z,6.47
2018-09-19T05:37:54.325Z,5.73
2018-09-19T05:40:22.378Z,6.43
2018-09-19T05:42:50.442Z,8.10
2018-09-19T05:45:18.502Z,8.97
2018-09-19T05:47:46.936Z,8.00
2018-09-19T05:50:14.999Z,6.97
2018-09-19T05:52:43.133Z,8.47
2018-09-19T05:55:11.228Z,7.20
2018-09-19T05:57:39.279Z,7.20
2018-09-19T06:00:07.333Z,8.50
2018-09-19T06:02:35.371Z,9.70
2018-09-19T06:05:03.482Z,8.00
2018-09-19T06:07:31.783Z,7.27
2018-09-19T06:09:59.847Z,7.63
2018-09-19T06:12:28.020Z,7.40
2018-09-19T06:14:56.101Z,8.90
2018-09-19T06:17:24.176Z,8.10
2018-09-19T06:19:52.271Z,7.83
2018-09-19T06:22:22.454Z,7.35
2018-09-19T06:25:13.786Z,7.47
2018-09-19T06:27:41.844Z,7.80
2018-09-19T06:30:09.877Z,6.80
2018-09-19T06:32:37.964Z,7.73
2018-09-19T06:35:06.108Z,6.50
2018-09-19T06:37:34.134Z,8.30
2018-09-19T06:40:02.391Z,6.73
2018-09-19T06:42:30.347Z,8.10
2018-09-19T06:44:58.390Z,8.00
2018-09-19T06:47:26.802Z,7.63
2018-09-19T06:50:01.422Z,7.50
2018-09-19T06:52:29.640Z,7.63
2018-09-19T06:55:13.942Z,8.35
2018-09-19T06:58:01.917Z,8.90
2018-09-19T07:00:30.083Z,8.03
2018-09-19T07:02:58.117Z,8.13
2018-09-19T07:05:26.143Z,8.43
2018-09-19T07:07:54.173Z,9.50
2018-09-19T07:10:23.467Z,8.13
2018-09-19T07:12:51.670Z,7.90
2018-09-19T07:15:19.741Z,9.27
2018-09-19T07:17:47.769Z,10.57
2018-09-19T07:20:22.527Z,10.50
2018-09-19T07:22:51.384Z,10.30
2018-09-19T07:25:35.938Z,10.05
2018-09-19T07:28:11.227Z,10.20
2018-09-19T07:30:54.007Z,9.93
2018-09-19T07:33:21.996Z,10.50
2018-09-19T07:35:50.065Z,10.23
2018-09-19T07:38:18.145Z,11.93
2018-09-19T07:40:46.168Z,10.80
2018-09-19T07:43:14.283Z,14.10
2018-09-19T07:45:57.584Z,11.73
2018-09-19T07:48:25.785Z,9.70
2018-09-19T07:50:53.809Z,9.47
2018-09-19T07:53:32.887Z,10.63
2018-09-19T07:56:06.844Z,9.53
2018-09-19T07:58:34.868Z,8.40
2018-09-19T08:01:25.333Z,8.47
2018-09-19T08:04:10.086Z,8.10
2018-09-19T08:06:38.141Z,8.17
2018-09-19T08:09:07.304Z,9.03
2018-09-19T08:11:35.332Z,8.50
2018-09-19T08:14:03.372Z,8.47
2018-09-19T08:16:31.437Z,8.93
2018-09-19T08:18:59.472Z,8.90
2018-09-19T08:21:27.517Z,9.67
2018-09-19T08:23:55.559Z,9.87
2018-09-19T08:26:23.684Z,9.30
2018-09-19T08:28:51.751Z,9.60
2018-09-19T08:31:19.761Z,10.30
2018-09-19T08:33:47.804Z,9.07
2018-09-19T08:36:16.000Z,10.28
2018-09-19T08:38:44.357Z,9.80
2018-09-19T08:41:12.444Z,10.30
2018-09-19T08:43:40.561Z,10.10
2018-09-19T08:46:08.748Z,8.90
2018-09-19T08:48:36.816Z,8.93
2018-09-19T08:51:05.055Z,9.73
2018-09-19T08:53:33.375Z,8.90
2018-09-19T08:56:01.392Z,9.17
2018-09-19T08:58:29.816Z,8.60
2018-09-19T09:00:57.849Z,8.17
2018-09-19T09:03:26.013Z,8.67
2018-09-19T09:05:54.081Z,8.83
2018-09-19T09:08:22.149Z,8.37
2018-09-19T09:10:50.218Z,7.73
2018-09-19T09:13:18.278Z,7.20
2018-09-19T09:15:46.308Z,6.83
2018-09-19T09:18:14.331Z,7.07
2018-09-19T09:20:42.382Z,7.03
2018-09-19T09:23:10.421Z,7.17
2018-09-19T09:25:38.626Z,7.23
2018-09-19T09:28:06.815Z,6.27
2018-09-19T09:30:35.164Z,6.95
2018-09-19T09:33:03.507Z,6.93
2018-09-19T09:35:31.545Z,7.37
2018-09-19T09:37:59.564Z,7.27
2018-09-19T09:40:27.717Z,7.20
2018-09-19T09:42:55.669Z,7.23
2018-09-19T09:45:23.712Z,7.13
2018-09-19T09:47:51.749Z,6.70
2018-09-19T09:50:19.857Z,6.67
2018-09-19T09:52:48.042Z,6.23
2018-09-19T09:55:16.105Z,6.90
2018-09-19T09:57:44.179Z,6.97
2018-09-19T10:00:12.214Z,6.90
2018-09-19T10:02:40.256Z,7.40
2018-09-19T10:05:08.284Z,6.50
2018-09-19T10:07:36.321Z,6.83
2018-09-19T10:10:04.363Z,6.83
2018-09-19T10:12:32.417Z,7.00
2018-09-19T10:15:00.497Z,6.53
2018-09-19T10:17:28.564Z,7.00
2018-09-19T10:19:56.783Z,6.13
2018-09-19T10:22:24.825Z,6.23
2018-09-19T10:24:52.934Z,6.00
2018-09-19T10:27:20.968Z,6.10
2018-09-19T10:29:49.105Z,5.67
2018-09-19T10:32:17.357Z,6.07
2018-09-19T10:34:45.418Z,5.73
2018-09-19T10:37:13.460Z,5.87
2018-09-19T10:39:41.520Z,5.77
2018-09-19T10:42:09.662Z,5.60
2018-09-19T10:44:37.833Z,6.17
2018-09-19T10:47:05.997Z,6.13
2018-09-19T10:49:34.041Z,5.73
2018-09-19T10:52:02.022Z,5.13
2018-09-19T10:54:30.198Z,5.23
2018-09-19T10:56:58.484Z,5.93
2018-09-19T10:59:26.510Z,5.63
2018-09-19T11:01:54.589Z,5.83
2018-09-19T11:04:22.649Z,5.00
2018-09-19T11:06:50.828Z,5.87
2018-09-19T11:09:18.883Z,5.70
2018-09-19T11:11:46.914Z,5.33
2018-09-19T11:14:14.942Z,5.78
2018-09-19T11:16:42.990Z,5.55
2018-09-19T11:19:11.037Z,6.03
2018-09-19T11:21:39.081Z,4.97
2018-09-19T11:24:07.876Z,6.00
2018-09-19T11:26:35.925Z,5.20
2018-09-19T11:29:04.844Z,4.78
2018-09-19T11:31:32.881Z,4.67
2018-09-19T11:34:00.969Z,5.47
2018-09-19T11:36:28.999Z,5.50
2018-09-19T11:38:57.059Z,5.27
2018-09-19T11:41:25.080Z,5.50
2018-09-19T11:43:53.116Z,4.80
2018-09-19T11:46:21.180Z,4.77
2018-09-19T11:48:49.301Z,4.97
2018-09-19T11:51:17.273Z,4.70
2018-09-19T11:53:45.320Z,5.20
2018-09-19T11:56:13.363Z,4.72
2018-09-19T11:58:41.389Z,5.60
2018-09-19T12:01:09.451Z,4.45
2018-09-19T12:03:37.552Z,4.77
2018-09-19T12:06:05.595Z,4.43
2018-09-19T12:08:33.656Z,5.00
2018-09-19T12:11:01.697Z,4.73
2018-09-19T12:13:29.727Z,4.80
2018-09-19T12:15:57.792Z,4.80
2018-09-19T12:18:25.961Z,5.40
2018-09-19T12:20:54.012Z,4.60
2018-09-19T12:23:22.052Z,4.33
2018-09-19T12:25:50.120Z,4.93
2018-09-19T12:28:18.226Z,4.83
2018-09-19T12:30:46.265Z,4.47
2018-09-19T12:33:14.353Z,4.40
2018-09-19T12:35:42.364Z,4.17
2018-09-19T12:38:10.425Z,4.50
2018-09-19T12:40:38.514Z,4.60
2018-09-19T12:43:06.577Z,4.60
2018-09-19T12:45:34.688Z,4.23
2018-09-19T12:48:02.757Z,4.20
2018-09-19T12:50:30.834Z,4.60
2018-09-19T12:52:58.877Z,4.10
2018-09-19T12:55:26.920Z,4.30
2018-09-19T12:57:54.949Z,4.00
2018-09-19T13:00:22.994Z,4.67
2018-09-19T13:02:51.116Z,4.10
2018-09-19T13:05:19.262Z,4.62
2018-09-19T13:07:47.286Z,5.07
2018-09-19T13:10:15.334Z,4.20
2018-09-19T13:12:43.389Z,3.93
2018-09-19T13:15:11.415Z,4.77
2018-09-19T13:17:39.476Z,4.27
2018-09-19T13:20:07.572Z,4.53
2018-09-19T13:22:35.633Z,4.80
2018-09-19T13:25:03.893Z,4.67
2018-09-19T13:27:31.937Z,3.73
2018-09-19T13:30:00.049Z,3.97
2018-09-19T13:32:28.104Z,4.60
2018-09-19T13:34:56.180Z,4.03
2018-09-19T13:37:24.187Z,4.33
2018-09-19T13:39:52.256Z,4.47
2018-09-19T13:42:20.292Z,4.55
2018-09-19T13:44:48.334Z,4.07
2018-09-19T13:47:16.433Z,4.10
2018-09-19T13:49:47.985Z,4.30
2018-09-19T13:52:16.029Z,4.03
2018-09-19T13:54:44.068Z,4.17
2018-09-19T13:57:18.692Z,4.10
2018-09-19T13:59:46.741Z,4.20
2018-09-19T14:02:15.152Z,4.03
2018-09-19T14:04:43.177Z,4.13
2018-09-19T14:07:11.237Z,4.10
2018-09-19T14:09:39.312Z,4.33
2018-09-19T14:12:07.625Z,4.23
2018-09-19T14:14:35.628Z,4.07
2018-09-19T14:17:04.069Z,4.10
2018-09-19T14:19:32.113Z,4.53
2018-09-19T14:22:00.158Z,4.07
2018-09-19T14:24:28.212Z,4.77
2018-09-19T14:26:56.263Z,4.80
2018-09-19T14:29:24.321Z,3.77
2018-09-19T14:31:52.387Z,4.00
2018-09-19T14:34:20.488Z,4.13
2018-09-19T14:36:48.624Z,4.63
2018-09-19T14:39:16.657Z,4.63
2018-09-19T14:41:44.705Z,4.20
2018-09-19T14:44:12.738Z,4.33
2018-09-19T14:46:40.790Z,3.77
2018-09-19T14:49:08.817Z,4.30
2018-09-19T14:51:36.847Z,4.13
2018-09-19T14:54:05.070Z,4.27
2018-09-19T14:56:33.080Z,3.83
2018-09-19T14:59:01.147Z,4.53
2018-09-19T15:01:29.181Z,4.43
2018-09-19T15:03:57.213Z,4.10
2018-09-19T15:06:25.268Z,3.70
2018-09-19T15:08:53.325Z,3.80
2018-09-19T15:11:21.383Z,4.60
2018-09-19T15:13:49.448Z,4.10
2018-09-19T15:16:17.491Z,4.05
2018-09-19T15:18:45.561Z,4.47
2018-09-19T15:21:13.602Z,3.50
2018-09-19T15:23:41.653Z,4.40
2018-09-19T15:26:09.702Z,3.75
2018-09-19T15:28:37.793Z,3.80
2018-09-19T15:31:05.784Z,4.00
2018-09-19T15:33:33.900Z,4.20
2018-09-19T15:36:01.963Z,3.97
2018-09-19T15:38:30.010Z,4.17
2018-09-19T15:40:58.033Z,3.63
2018-09-19T15:43:26.109Z,3.80
2018-09-19T15:45:54.175Z,4.70
2018-09-19T15:48:22.413Z,4.12
2018-09-19T15:50:50.475Z,3.97
2018-09-19T15:53:18.518Z,3.72
2018-09-19T15:55:46.561Z,3.90
2018-09-19T15:58:14.595Z,4.40
2018-09-19T16:00:42.636Z,4.60
2018-09-19T16:03:10.734Z,4.77
2018-09-19T16:05:38.822Z,4.27
2018-09-19T16:08:06.843Z,3.83
2018-09-19T16:10:34.893Z,4.00
2018-09-19T16:13:02.924Z,4.87
2018-09-19T16:15:30.962Z,4.67
2018-09-19T16:17:59.249Z,4.47
2018-09-19T16:20:27.297Z,4.23
2018-09-19T16:22:55.774Z,4.50
2018-09-19T16:25:23.806Z,4.27
2018-09-19T16:27:51.829Z,4.63
2018-09-19T16:30:19.920Z,4.42
2018-09-19T16:32:47.965Z,4.60
2018-09-19T16:35:16.036Z,5.23
2018-09-19T16:37:44.069Z,5.73
2018-09-19T16:40:12.137Z,4.50
2018-09-19T16:42:40.198Z,5.30
2018-09-19T16:45:08.248Z,4.93
2018-09-19T16:47:36.295Z,4.97
2018-09-19T16:50:04.807Z,4.47
2018-09-19T16:52:32.897Z,4.20
2018-09-19T16:55:01.035Z,5.20
2018-09-19T16:57:29.093Z,4.73
2018-09-19T16:59:57.175Z,4.90
2018-09-19T17:02:25.232Z,4.80
2018-09-19T17:04:53.297Z,5.33
2018-09-19T17:07:21.383Z,5.35
2018-09-19T17:09:49.415Z,5.10
2018-09-19T17:12:17.471Z,5.17
2018-09-19T17:14:45.515Z,5.33
2018-09-19T17:17:13.575Z,5.30
2018-09-19T17:19:41.621Z,6.23
2018-09-19T17:22:09.765Z,5.23
2018-09-19T17:24:37.810Z,5.17
2018-09-19T17:27:05.844Z,5.00
2018-09-19T17:29:33.875Z,5.23
2018-09-19T17:32:01.921Z,4.80
2018-09-19T17:34:30.005Z,5.07
2018-09-19T17:36:58.046Z,4.80
2018-09-19T17:39:26.098Z,5.47
2018-09-19T17:41:54.150Z,4.90
2018-09-19T17:44:22.170Z,4.65
2018-09-19T17:46:50.212Z,5.33
2018-09-19T17:49:18.253Z,5.40
2018-09-19T17:51:46.317Z,6.23
2018-09-19T17:54:14.372Z,4.90
2018-09-19T17:56:42.401Z,5.27
2018-09-19T17:59:10.448Z,5.57
2018-09-19T18:01:38.568Z,4.83
2018-09-19T18:04:06.882Z,5.07
2018-09-19T18:06:34.996Z,5.10
2018-09-19T18:09:03.280Z,5.80
2018-09-19T18:11:31.316Z,5.47
2018-09-19T18:13:59.409Z,5.60
2018-09-19T18:16:27.436Z,5.03
2018-09-19T18:18:55.504Z,5.73
2018-09-19T18:21:23.570Z,6.10
2018-09-19T18:23:52.173Z,5.37
2018-09-19T18:26:20.232Z,5.08
2018-09-19T18:28:48.284Z,5.47
2018-09-19T18:31:16.363Z,5.20
2018-09-19T18:33:44.404Z,4.77
2018-09-19T18:36:12.461Z,5.37
2018-09-19T18:38:40.553Z,5.33
2018-09-19T18:41:08.609Z,4.50
2018-09-19T18:43:36.664Z,5.63
2018-09-19T18:46:04.928Z,5.10
2018-09-19T18:48:32.970Z,5.03
2018-09-19T18:51:01.428Z,6.10
2018-09-19T18:53:29.496Z,5.83
2018-09-19T18:55:57.535Z,7.93
2018-09-19T18:58:25.577Z,5.10
2018-09-19T19:00:53.622Z,4.73
2018-09-19T19:03:21.653Z,5.80
2018-09-19T19:05:49.672Z,4.60
2018-09-19T19:08:17.720Z,4.77
2018-09-19T19:10:45.773Z,5.53
2018-09-19T19:13:13.836Z,4.70
2018-09-19T19:15:42.319Z,4.80
2018-09-19T19:18:10.359Z,4.72
2018-09-19T19:20:38.576Z,4.60
2018-09-19T19:23:06.864Z,4.73
2018-09-19T19:25:34.956Z,4.40
2018-09-19T19:28:03.005Z,4.80
2018-09-19T19:30:31.373Z,5.23
2018-09-19T19:32:59.273Z,5.00
2018-09-19T19:35:27.291Z,4.77
2018-09-19T19:37:55.349Z,4.67
2018-09-19T19:40:23.336Z,4.70
2018-09-19T19:42:51.416Z,4.93
2018-09-19T19:45:19.429Z,4.37
2018-09-19T19:47:47.445Z,5.03
2018-09-19T19:50:15.543Z,5.43
2018-09-19T19:52:43.572Z,5.10
2018-09-19T19:55:11.632Z,4.60
2018-09-19T19:57:39.676Z,5.30
2018-09-19T20:00:07.700Z,4.70
2018-09-19T20:02:35.813Z,4.70
2018-09-19T20:05:04.932Z,4.65
2018-09-19T20:07:32.956Z,4.60
2018-09-19T20:10:00.998Z,6.30
2018-09-19T20:12:29.073Z,4.43
2018-09-19T20:14:57.050Z,4.90
2018-09-19T20:17:25.122Z,4.63
2018-09-19T20:19:53.298Z,4.67
2018-09-19T20:22:21.317Z,4.67
2018-09-19T20:24:49.364Z,4.30
2018-09-19T20:27:17.437Z,4.20
2018-09-19T20:29:45.463Z,5.23
2018-09-19T20:32:13.503Z,4.65
2018-09-19T20:34:41.512Z,4.60
2018-09-19T20:37:09.547Z,4.75
2018-09-19T20:39:37.588Z,4.87
2018-09-19T20:42:05.633Z,4.90
2018-09-19T20:44:33.700Z,4.93
2018-09-19T20:47:01.778Z,5.07
2018-09-19T20:49:29.745Z,4.60
2018-09-19T20:51:57.771Z,4.93
2018-09-19T20:54:25.787Z,4.97
2018-09-19T20:56:53.789Z,4.67
2018-09-19T20:59:21.824Z,5.00
2018-09-19T21:01:49.872Z,5.07
2018-09-19T21:04:17.939Z,5.07
2018-09-19T21:06:45.941Z,4.73
2018-09-19T21:09:13.972Z,5.37
2018-09-19T21:11:42.013Z,4.70
2018-09-19T21:14:10.043Z,5.00
2018-09-19T21:16:38.065Z,4.73
2018-09-19T21:19:06.089Z,4.97
2018-09-19T21:21:34.121Z,5.03
2018-09-19T21:24:02.150Z,5.60
2018-09-19T21:26:30.170Z,5.15
2018-09-19T21:28:58.193Z,5.70
2018-09-19T21:31:26.239Z,5.10
2018-09-19T21:33:54.383Z,5.77
2018-09-19T21:36:22.501Z,5.10
2018-09-19T21:38:50.611Z,4.53
2018-09-19T21:41:18.684Z,5.03
2018-09-19T21:43:46.735Z,5.20
2018-09-19T21:46:15.067Z,5.60
2018-09-19T21:48:43.117Z,5.03
2018-09-19T21:51:11.172Z,5.30
2018-09-19T21:53:39.245Z,5.20
2018-09-19T21:56:07.329Z,5.07
2018-09-19T21:58:35.463Z,5.73
2018-09-19T22:01:10.365Z,5.47
2018-09-19T22:03:40.073Z,5.30
2018-09-19T22:06:08.413Z,5.12
2018-09-19T22:08:37.407Z,5.27
2018-09-19T22:11:06.041Z,4.70
2018-09-19T22:13:34.150Z,5.03
2018-09-19T22:16:02.185Z,5.40
2018-09-19T22:18:30.332Z,5.47
2018-09-19T22:20:58.395Z,6.40
2018-09-19T22:23:26.480Z,5.58
2018-09-19T22:25:54.532Z,5.13
2018-09-19T22:28:22.600Z,5.20
2018-09-19T22:30:51.069Z,5.90
2018-09-19T22:33:19.110Z,5.25
2018-09-19T22:35:47.206Z,5.13
2018-09-19T22:38:21.898Z,4.77
2018-09-19T22:40:50.064Z,5.17
2018-09-19T22:43:18.190Z,4.80
2018-09-19T22:45:46.409Z,4.47
2018-09-19T22:48:14.583Z,5.37
2018-09-19T22:50:42.651Z,4.70
2018-09-19T22:53:10.852Z,4.50
2018-09-19T22:55:38.953Z,5.17
2018-09-19T22:58:07.063Z,5.03
2018-09-19T23:00:35.093Z,5.70
2018-09-19T23:03:03.186Z,4.80
2018-09-19T23:05:31.300Z,5.10
2018-09-19T23:07:59.383Z,5.47
2018-09-19T23:10:27.445Z,5.03
2018-09-19T23:12:55.498Z,5.57
2018-09-19T23:15:23.553Z,5.17
2018-09-19T23:17:51.589Z,5.03
2018-09-19T23:20:19.660Z,5.00
2018-09-19T23:22:47.716Z,5.10
2018-09-19T23:25:15.754Z,5.07
2018-09-19T23:27:43.840Z,4.83
2018-09-19T23:30:11.905Z,5.15
2018-09-19T23:32:39.992Z,5.60
2018-09-19T23:35:08.040Z,5.33
2018-09-19T23:37:36.105Z,5.03
2018-09-19T23:40:05.132Z,5.42
2018-09-19T23:42:33.205Z,5.23
2018-09-19T23:45:01.421Z,5.23
2018-09-19T23:47:29.527Z,5.87
2018-09-19T23:49:57.549Z,5.50
2018-09-19T23:52:25.628Z,5.30
2018-09-19T23:54:53.661Z,5.60
2018-09-19T23:57:21.668Z,5.55
2018-09-19T23:59:49.892Z,5.80
